createdAt,value
2022-09-11T00:02:07.623Z,99307.09
2022-09-11T00:05:10.655Z,99306.72
2022-09-11T00:08:16.815Z,99312.72
2022-09-11T00:11:20.993Z,99305.69
2022-09-11T00:14:22.590Z,99292.75
2022-09-11T00:17:24.342Z,99297.00
2022-09-11T00:20:25.968Z,99290.16
2022-09-11T00:23:28.305Z,99293.41
2022-09-11T00:26:30.107Z,99293.13
2022-09-11T00:29:32.494Z,99290.38
2022-09-11T00:32:34.326Z,99289.22
2022-09-11T00:35:36.113Z,99291.19
2022-09-11T00:38:38.944Z,99288.13
2022-09-11T00:41:44.784Z,99288.47
2022-09-11T00:44:49.522Z,99281.06
2022-09-11T00:47:53.481Z,99290.84
2022-09-11T00:50:59.182Z,99280.28
2022-09-11T00:54:03.953Z,99280.72
2022-09-11T00:57:08.192Z,99279.13
2022-09-11T01:00:11.618Z,99273.59
2022-09-11T01:03:13.716Z,99289.00
2022-09-11T01:06:16.232Z,99286.16
2022-09-11T01:09:17.972Z,99284.22
2022-09-11T01:12:36.644Z,99286.88
2022-09-11T01:15:49.957Z,99282.66
2022-09-11T01:18:57.819Z,99281.06
2022-09-11T01:22:33.480Z,99273.69
2022-09-11T01:25:57.612Z,99267.78
2022-09-11T01:29:29.034Z,99276.69
2022-09-11T01:32:55.456Z,99272.19
2022-09-11T01:36:19.564Z,99281.28
2022-09-11T01:39:27.237Z,99261.06
2022-09-11T01:42:33.195Z,99267.09
2022-09-11T01:45:37.346Z,99280.84
2022-09-11T01:48:48.720Z,99289.44
2022-09-11T01:51:56.963Z,99289.94
2022-09-11T01:55:04.977Z,99281.97
2022-09-11T01:58:15.385Z,99293.50
2022-09-11T02:01:28.777Z,99293.41
2022-09-11T02:04:37.438Z,99285.78
2022-09-11T02:07:48.658Z,99294.03
2022-09-11T02:10:54.000Z,99294.75
2022-09-11T02:14:04.369Z,99286.06
2022-09-11T02:17:36.674Z,99290.44
2022-09-11T02:20:39.398Z,99291.69
2022-09-11T02:23:41.570Z,99287.13
2022-09-11T02:26:47.892Z,99288.69
2022-09-11T02:29:50.754Z,99291.13
2022-09-11T02:32:56.088Z,99278.31
2022-09-11T02:36:22.327Z,99284.13
2022-09-11T02:40:02.665Z,99280.19
2022-09-11T02:43:38.662Z,99288.16
2022-09-11T02:46:52.707Z,99280.53
2022-09-11T02:49:54.522Z,99286.06
2022-09-11T02:53:09.876Z,99296.25
2022-09-11T02:56:32.089Z,99297.13
2022-09-11T02:59:41.027Z,99285.72
2022-09-11T03:02:43.238Z,99288.16
2022-09-11T03:05:45.551Z,99286.56
2022-09-11T03:08:47.696Z,99287.44
2022-09-11T03:11:50.190Z,99288.25
2022-09-11T03:14:52.234Z,99286.22
2022-09-11T03:17:56.646Z,99294.81
2022-09-11T03:20:58.295Z,99297.19
2022-09-11T03:24:01.221Z,99292.44
2022-09-11T03:27:03.237Z,99285.59
2022-09-11T03:30:06.957Z,99291.75
2022-09-11T03:33:09.041Z,99294.66
2022-09-11T03:36:12.104Z,99293.06
2022-09-11T03:39:14.045Z,99296.59
2022-09-11T03:42:16.146Z,99291.06
2022-09-11T03:45:17.926Z,99291.34
2022-09-11T03:48:19.841Z,99293.59
2022-09-11T03:51:22.295Z,99290.00
2022-09-11T03:54:24.009Z,99283.78
2022-09-11T03:57:26.512Z,99290.72
2022-09-11T04:00:29.703Z,99294.22
2022-09-11T04:03:32.227Z,99294.22
2022-09-11T04:06:34.075Z,99299.75
2022-09-11T04:09:37.963Z,99288.69
2022-09-11T04:12:42.078Z,99284.13
2022-09-11T04:15:43.917Z,99282.34
2022-09-11T04:18:47.055Z,99293.41
2022-09-11T04:21:49.825Z,99295.09
2022-09-11T04:24:52.045Z,99299.81
2022-09-11T04:27:54.240Z,99307.81
2022-09-11T04:30:57.493Z,99311.69
2022-09-11T04:33:59.697Z,99306.59
2022-09-11T04:37:06.218Z,99318.47
2022-09-11T04:40:10.118Z,99333.97
2022-09-11T04:43:12.592Z,99339.69
2022-09-11T04:46:16.535Z,99315.44
2022-09-11T04:49:19.496Z,99304.97
2022-09-11T04:52:22.351Z,99344.41
2022-09-11T04:55:25.419Z,99338.75
2022-09-11T04:58:27.273Z,99335.72
2022-09-11T05:01:31.232Z,99351.19
2022-09-11T05:04:33.923Z,99350.66
2022-09-11T05:07:36.825Z,99363.91
2022-09-11T05:10:39.863Z,99365.25
2022-09-11T05:13:43.034Z,99368.38
2022-09-11T05:16:45.573Z,99368.38
2022-09-11T05:19:49.320Z,99370.56
2022-09-11T05:22:51.538Z,99369.00
2022-09-11T05:25:58.092Z,99372.88
2022-09-11T05:29:03.620Z,99375.13
2022-09-11T05:32:08.239Z,99373.88
2022-09-11T05:35:09.954Z,99383.63
2022-09-11T05:38:12.669Z,99371.94
2022-09-11T05:41:15.674Z,99395.03
2022-09-11T05:44:18.730Z,99393.56
2022-09-11T05:47:21.048Z,99388.81
2022-09-11T05:50:25.899Z,99394.97
2022-09-11T05:53:32.206Z,99393.91
2022-09-11T05:56:34.481Z,99404.78
2022-09-11T05:59:40.130Z,99412.25
2022-09-11T06:02:42.448Z,99394.25
2022-09-11T06:05:44.163Z,99411.47
2022-09-11T06:08:47.998Z,99412.81
2022-09-11T06:11:49.722Z,99408.97
2022-09-11T06:14:51.881Z,99412.72
2022-09-11T06:17:53.846Z,99416.66
2022-09-11T06:21:02.868Z,99427.72
2022-09-11T06:24:10.724Z,99427.72
2022-09-11T06:27:12.642Z,99431.13
2022-09-11T06:30:18.560Z,99427.31
2022-09-11T06:33:22.060Z,99431.13
2022-09-11T06:36:27.657Z,99430.22
2022-09-11T06:39:31.765Z,99424.88
2022-09-11T06:42:33.982Z,99431.78
2022-09-11T06:45:36.341Z,99427.72
2022-09-11T06:48:44.845Z,99427.97
2022-09-11T06:51:47.713Z,99435.66
2022-09-11T06:54:50.602Z,99442.00
2022-09-11T06:57:53.872Z,99432.47
2022-09-11T07:01:11.416Z,99435.84
2022-09-11T07:04:15.626Z,99439.81
2022-09-11T07:07:18.692Z,99437.88
2022-09-11T07:10:20.572Z,99438.69
2022-09-11T07:13:27.517Z,99441.41
2022-09-11T07:16:30.319Z,99430.88
2022-09-11T07:19:33.775Z,99450.53
2022-09-11T07:22:36.915Z,99443.88
2022-09-11T07:25:38.748Z,99449.06
2022-09-11T07:28:41.530Z,99461.19
2022-09-11T07:31:43.224Z,99451.78
2022-09-11T07:34:47.732Z,99449.16
2022-09-11T07:37:50.942Z,99450.19
2022-09-11T07:40:54.500Z,99453.66
2022-09-11T07:44:03.444Z,99463.66
2022-09-11T07:47:06.858Z,99456.19
2022-09-11T07:50:14.032Z,99467.16
2022-09-11T07:53:16.807Z,99464.38
2022-09-11T07:56:23.225Z,99458.19
2022-09-11T07:59:25.260Z,99468.84
2022-09-11T08:02:28.193Z,99478.34
2022-09-11T08:05:30.213Z,99470.34
2022-09-11T08:08:33.568Z,99488.09
2022-09-11T08:11:45.967Z,99478.72
2022-09-11T08:14:48.161Z,99482.25
2022-09-11T08:17:54.494Z,99478.75
2022-09-11T08:21:12.583Z,99488.31
2022-09-11T08:24:17.142Z,99481.72
2022-09-11T08:27:20.005Z,99491.69
2022-09-11T08:30:22.052Z,99488.94
2022-09-11T08:33:23.960Z,99496.53
2022-09-11T08:36:25.844Z,99492.31
2022-09-11T08:39:28.050Z,99488.88
2022-09-11T08:42:32.451Z,99485.88
2022-09-11T08:45:35.941Z,99491.03
2022-09-11T08:48:45.828Z,99492.25
2022-09-11T08:51:50.020Z,99498.50
2022-09-11T08:54:55.997Z,99496.25
2022-09-11T08:58:12.993Z,99500.28
2022-09-11T09:01:24.901Z,99502.50
2022-09-11T09:04:46.941Z,99503.72
2022-09-11T09:08:04.988Z,99498.97
2022-09-11T09:11:17.254Z,99497.13
2022-09-11T09:14:32.176Z,99493.16
2022-09-11T09:17:34.136Z,99498.69
2022-09-11T09:20:42.499Z,99500.28
2022-09-11T09:23:56.260Z,99497.75
2022-09-11T09:26:59.003Z,99500.75
2022-09-11T09:30:05.890Z,99502.81
2022-09-11T09:33:31.286Z,99502.09
2022-09-11T09:36:56.219Z,99514.63
2022-09-11T09:40:01.012Z,99495.94
2022-09-11T09:43:15.504Z,99495.28
2022-09-11T09:46:37.416Z,99495.53
2022-09-11T09:49:39.576Z,99492.91
2022-09-11T09:52:41.442Z,99485.16
2022-09-11T09:55:44.694Z,99487.97
2022-09-11T09:59:01.117Z,99481.69
2022-09-11T10:02:03.084Z,99486.13
2022-09-11T10:05:22.988Z,99483.69
2022-09-11T10:08:33.841Z,99474.75
2022-09-11T10:11:35.658Z,99470.50
2022-09-11T10:14:52.278Z,99459.66
2022-09-11T10:18:17.081Z,99455.72
2022-09-11T10:21:29.713Z,99461.66
2022-09-11T10:24:31.553Z,99467.75
2022-09-11T10:27:39.157Z,99467.63
2022-09-11T10:30:58.052Z,99460.31
2022-09-11T10:34:01.107Z,99463.94
2022-09-11T10:37:09.776Z,99454.56
2022-09-11T10:40:22.828Z,99459.34
2022-09-11T10:43:32.023Z,99451.94
2022-09-11T10:46:41.102Z,99462.59
2022-09-11T10:49:43.918Z,99452.38
2022-09-11T10:52:57.716Z,99455.53
2022-09-11T10:56:03.522Z,99460.63
2022-09-11T10:59:07.236Z,99462.91
2022-09-11T11:02:29.625Z,99463.16
2022-09-11T11:05:56.214Z,99462.38
2022-09-11T11:09:08.169Z,99464.56
2022-09-11T11:12:32.707Z,99463.16
2022-09-11T11:15:52.920Z,99475.63
2022-09-11T11:19:03.972Z,99467.91
2022-09-11T11:22:17.846Z,99462.91
2022-09-11T11:25:34.353Z,99460.91
2022-09-11T11:29:09.580Z,99474.19
2022-09-11T11:32:39.598Z,99470.97
2022-09-11T11:36:08.767Z,99461.41
2022-09-11T11:39:30.120Z,99455.72
2022-09-11T11:42:40.207Z,99448.91
2022-09-11T11:45:49.997Z,99448.22
2022-09-11T11:49:10.988Z,99459.25
2022-09-11T11:52:36.918Z,99442.84
2022-09-11T11:56:18.619Z,99440.97
2022-09-11T11:59:41.572Z,99444.50
2022-09-11T12:02:53.110Z,99437.84
2022-09-11T12:05:54.768Z,99431.91
2022-09-11T12:08:57.475Z,99435.09
2022-09-11T12:12:06.256Z,99424.41
2022-09-11T12:15:10.293Z,99427.16
2022-09-11T12:18:12.011Z,99423.53
2022-09-11T12:21:23.097Z,99423.28
2022-09-11T12:25:10.909Z,99426.06
2022-09-11T12:28:25.396Z,99423.81
2022-09-11T12:31:50.909Z,99420.63
2022-09-11T12:35:01.690Z,99420.63
2022-09-11T12:38:06.296Z,99417.50
2022-09-11T12:41:37.833Z,99416.03
2022-09-11T12:44:45.633Z,99414.25
2022-09-11T12:47:47.416Z,99410.44
2022-09-11T12:50:54.649Z,99413.59
2022-09-11T12:54:03.121Z,99404.34
2022-09-11T12:57:29.504Z,99400.44
2022-09-11T13:00:36.263Z,99396.41
2022-09-11T13:03:46.573Z,99386.97
2022-09-11T13:07:08.539Z,99392.03
2022-09-11T13:10:35.339Z,99388.06
2022-09-11T13:13:44.719Z,99391.63
2022-09-11T13:17:40.473Z,99380.38
2022-09-11T13:20:41.175Z,99378.72
2022-09-11T13:23:51.351Z,99372.84
2022-09-11T13:26:59.793Z,99371.69
2022-09-11T13:30:01.924Z,99366.56
2022-09-11T13:33:09.189Z,99367.50
2022-09-11T13:36:13.090Z,99372.16
2022-09-11T13:39:17.490Z,99370.88
2022-09-11T13:42:23.417Z,99364.53
2022-09-11T13:45:28.216Z,99357.94
2022-09-11T13:48:29.892Z,99343.97
2022-09-11T13:51:32.963Z,99355.47
2022-09-11T13:54:43.605Z,99333.22
2022-09-11T13:58:21.471Z,99339.28
2022-09-11T14:01:23.700Z,99335.72
2022-09-11T14:04:27.368Z,99336.88
2022-09-11T14:07:29.143Z,99319.44
2022-09-11T14:10:35.191Z,99312.09
2022-09-11T14:13:49.434Z,99314.50
2022-09-11T14:17:01.412Z,99309.56
2022-09-11T14:20:03.644Z,99306.63
2022-09-11T14:23:06.669Z,99290.50
2022-09-11T14:26:18.437Z,99295.91
2022-09-11T14:29:36.342Z,99293.44
2022-09-11T14:32:39.203Z,99292.28
2022-09-11T14:36:50.933Z,99286.81
2022-09-11T14:39:56.750Z,99290.00
2022-09-11T14:42:58.629Z,99275.34
2022-09-11T14:46:02.112Z,99274.13
2022-09-11T14:49:03.862Z,99269.16
2022-09-11T14:52:06.728Z,99264.53
2022-09-11T14:55:14.587Z,99270.78
2022-09-11T14:58:16.421Z,99272.41
2022-09-11T15:01:18.181Z,99270.34
2022-09-11T15:04:23.029Z,99267.88
2022-09-11T15:07:25.545Z,99270.00
2022-09-11T15:10:27.531Z,99263.59
2022-09-11T15:13:29.380Z,99262.88
2022-09-11T15:16:31.506Z,99260.53
2022-09-11T15:19:35.149Z,99257.25
2022-09-11T15:22:38.333Z,99242.06
2022-09-11T15:25:41.021Z,99242.44
2022-09-11T15:28:42.792Z,99250.53
2022-09-11T15:31:44.549Z,99253.19
2022-09-11T15:34:47.673Z,99239.38
2022-09-11T15:37:55.547Z,99234.69
2022-09-11T15:40:57.169Z,99233.41
2022-09-11T15:43:58.899Z,99232.78
2022-09-11T15:47:00.636Z,99232.91
2022-09-11T15:50:02.290Z,99229.59
2022-09-11T15:53:03.957Z,99221.13
2022-09-11T15:56:07.095Z,99233.47
2022-09-11T15:59:11.585Z,99225.88
2022-09-11T16:02:13.319Z,99225.53
2022-09-11T16:05:15.405Z,99235.88
2022-09-11T16:08:17.160Z,99229.25
2022-09-11T16:11:21.274Z,99228.16
2022-09-11T16:14:28.807Z,99224.72
2022-09-11T16:17:32.495Z,99223.41
2022-09-11T16:20:34.135Z,99226.94
2022-09-11T16:23:36.990Z,99234.41
2022-09-11T16:26:38.744Z,99215.06
2022-09-11T16:33:02.437Z,99227.31
2022-09-11T16:36:07.419Z,99230.75
2022-09-11T16:39:12.761Z,99217.75
2022-09-11T16:42:14.666Z,99223.13
2022-09-11T16:45:16.381Z,99223.53
2022-09-11T16:48:18.279Z,99217.66
2022-09-11T16:51:20.652Z,99215.72
2022-09-11T16:54:22.951Z,99217.78
2022-09-11T16:57:27.300Z,99224.19
2022-09-11T17:00:29.017Z,99219.22
2022-09-11T17:03:30.729Z,99210.41
2022-09-11T17:06:32.809Z,99208.06
2022-09-11T17:09:34.462Z,99208.97
2022-09-11T17:12:37.252Z,99209.78
2022-09-11T17:15:40.668Z,99215.31
2022-09-11T17:18:45.567Z,99221.56
2022-09-11T17:21:47.346Z,99221.34
2022-09-11T17:24:48.964Z,99208.81
2022-09-11T17:27:50.799Z,99213.13
2022-09-11T17:30:52.556Z,99214.31
2022-09-11T17:33:54.235Z,99213.53
2022-09-11T17:36:55.854Z,99212.72
2022-09-11T17:39:58.564Z,99215.06
2022-09-11T17:43:00.677Z,99218.22
2022-09-11T17:46:05.117Z,99217.78
2022-09-11T17:49:07.341Z,99224.28
2022-09-11T17:52:09.748Z,99227.38
2022-09-11T17:55:11.590Z,99219.09
2022-09-11T17:58:13.238Z,99224.94
2022-09-11T18:01:17.089Z,99227.59
2022-09-11T18:04:18.958Z,99225.09
2022-09-11T18:07:20.669Z,99221.53
2022-09-11T18:10:22.633Z,99217.53
2022-09-11T18:13:24.291Z,99215.84
2022-09-11T18:16:26.180Z,99211.44
2022-09-11T18:19:28.364Z,99213.28
2022-09-11T18:22:33.455Z,99224.16
2022-09-11T18:25:40.885Z,99205.19
2022-09-11T18:32:10.893Z,99213.06
2022-09-11T18:35:28.725Z,99203.59
2022-09-11T18:38:38.374Z,99198.50
2022-09-11T18:42:10.276Z,99210.75
2022-09-11T18:45:53.064Z,99204.06
2022-09-11T18:49:07.965Z,99205.91
2022-09-11T18:52:22.661Z,99217.97
2022-09-11T18:55:30.093Z,99215.53
2022-09-11T18:58:33.886Z,99215.09
2022-09-11T19:01:41.861Z,99226.47
2022-09-11T19:04:48.142Z,99216.97
2022-09-11T19:08:00.130Z,99214.13
2022-09-11T19:11:20.421Z,99224.25
2022-09-11T19:14:43.992Z,99210.94
2022-09-11T19:18:01.706Z,99213.72
2022-09-11T19:21:26.937Z,99221.59
2022-09-11T19:24:30.298Z,99218.38
2022-09-11T19:27:47.258Z,99217.38
2022-09-11T19:30:58.388Z,99219.38
2022-09-11T19:34:03.979Z,99212.22
2022-09-11T19:37:05.960Z,99221.00
2022-09-11T19:40:07.997Z,99228.56
2022-09-11T19:43:11.854Z,99236.44
2022-09-11T19:46:22.009Z,99221.91
2022-09-11T19:49:24.096Z,99221.41
2022-09-11T19:52:29.720Z,99214.78
2022-09-11T19:55:35.313Z,99232.69
2022-09-11T19:58:38.914Z,99212.34
2022-09-11T20:01:40.894Z,99231.38
2022-09-11T20:04:42.711Z,99242.88
2022-09-11T20:07:44.457Z,99241.69
2022-09-11T20:10:47.279Z,99231.25
2022-09-11T20:13:49.514Z,99232.53
2022-09-11T20:16:51.294Z,99231.72
2022-09-11T20:19:53.230Z,99221.44
2022-09-11T20:23:00.549Z,99241.50
2022-09-11T20:26:16.935Z,99239.09
2022-09-11T20:29:19.212Z,99229.72
2022-09-11T20:32:21.095Z,99218.97
2022-09-11T20:35:23.284Z,99233.66
2022-09-11T20:38:25.193Z,99233.81
2022-09-11T20:41:30.167Z,99230.34
2022-09-11T20:44:36.743Z,99229.88
2022-09-11T20:47:39.645Z,99228.66
2022-09-11T20:50:41.588Z,99219.53
2022-09-11T20:53:45.824Z,99224.28
2022-09-11T20:56:47.541Z,99221.56
2022-09-11T20:59:50.005Z,99227.63
2022-09-11T21:02:52.439Z,99222.84
2022-09-11T21:05:56.084Z,99226.66
2022-09-11T21:09:00.993Z,99221.91
2022-09-11T21:12:03.163Z,99217.97
2022-09-11T21:15:07.702Z,99219.13
2022-09-11T21:18:09.984Z,99219.19
2022-09-11T21:21:11.757Z,99219.06
2022-09-11T21:24:14.146Z,99209.94
2022-09-11T21:27:15.825Z,99198.19
2022-09-11T21:30:17.679Z,99199.63
2022-09-11T21:33:19.718Z,99191.13
2022-09-11T21:36:21.567Z,99182.19
2022-09-11T21:39:23.354Z,99201.03
2022-09-11T21:42:25.248Z,99187.50
2022-09-11T21:45:27.172Z,99189.34
2022-09-11T21:48:33.603Z,99184.78
2022-09-11T21:51:37.307Z,99191.66
2022-09-11T21:54:39.357Z,99191.72
2022-09-11T21:57:41.172Z,99197.03
2022-09-11T22:00:43.466Z,99194.81
2022-09-11T22:03:46.124Z,99197.75
2022-09-11T22:06:48.037Z,99200.25
2022-09-11T22:09:49.736Z,99202.44
2022-09-11T22:12:51.735Z,99208.09
2022-09-11T22:15:53.590Z,99195.34
2022-09-11T22:18:55.458Z,99204.41
2022-09-11T22:21:57.304Z,99183.69
2022-09-11T22:24:59.261Z,99199.75
2022-09-11T22:28:01.032Z,99203.22
2022-09-11T22:31:11.128Z,99182.81
2022-09-11T22:34:14.441Z,99198.69
2022-09-11T22:37:16.897Z,99186.22
2022-09-11T22:40:19.191Z,99197.03
2022-09-11T22:43:20.984Z,99188.91
2022-09-11T22:46:24.049Z,99181.47
2022-09-11T22:49:25.816Z,99177.31
2022-09-11T22:52:28.035Z,99183.72
2022-09-11T22:55:30.030Z,99181.06
2022-09-11T22:58:32.617Z,99191.94
2022-09-11T23:01:35.018Z,99186.69
2022-09-11T23:04:36.701Z,99166.38
2022-09-11T23:07:38.869Z,99176.63
2022-09-11T23:10:42.342Z,99183.94
2022-09-11T23:13:44.639Z,99176.31
2022-09-11T23:16:46.500Z,99164.56
2022-09-11T23:19:48.827Z,99160.44
2022-09-11T23:22:50.840Z,99151.66
2022-09-11T23:25:52.689Z,99161.84
2022-09-11T23:28:56.011Z,99161.03
2022-09-11T23:31:57.810Z,99161.16
2022-09-11T23:34:59.644Z,99155.69
2022-09-11T23:38:01.380Z,99152.81
2022-09-11T23:41:03.810Z,99163.97
2022-09-11T23:44:06.056Z,99153.19
2022-09-11T23:47:08.124Z,99143.28
2022-09-11T23:50:10.193Z,99142.94
2022-09-11T23:53:11.983Z,99151.19
2022-09-11T23:56:15.070Z,99152.41
2022-09-11T23:59:17.312Z,99147.75
